Time,TemperatureF,DewpointF,PressureIn,WindDirection,WindDirectionDegrees,WindSpeedMPH,WindSpeedGustMPH,Humidity,HourlyPrecipIn,Conditions,Clouds,dailyrainin,SoftwareType,DateUTC
2013-05-07 00:00:00,46.8,46.5,29.97,North,-999,0.0,-999.0,99,-99.99,,,-99.99,Acu-Link.com,2013-05-07 05:00:00,
2013-05-07 00:15:00,46.3,46.0,29.97,North,-999,0.0,-999.0,99,-99.99,,,-99.99,Acu-Link.com,2013-05-07 05:15:00,
2013-05-07 00:30:00,46.1,45.8,29.97,North,-999,0.0,-999.0,99,-99.99,,,-99.99,Acu-Link.com,2013-05-07 05:30:00,
2013-05-07 00:46:00,46.0,45.7,29.97,North,-999,0.0,-999.0,99,-99.99,,,-99.99,Acu-Link.com,2013-05-07 05:46:00,
2013-05-07 01:02:00,45.9,45.6,29.97,North,-999,0.0,-999.0,99,-99.99,,,-99.99,Acu-Link.com,2013-05-07 06:02:00,
2013-05-07 01:17:00,46.4,46.1,29.97,North,-999,0.0,-999.0,99,-99.99,,,-99.99,Acu-Link.com,2013-05-07 06:17:00,
2013-05-07 01:32:00,46.6,46.3,29.96,North,-999,0.0,-999.0,99,-99.99,,,-99.99,Acu-Link.com,2013-05-07 06:32:00,
2013-05-07 01:47:00,47.9,47.6,29.96,North,-999,0.0,-999.0,99,-99.99,,,-99.99,Acu-Link.com,2013-05-07 06:47:00,
2013-05-07 02:02:00,46.9,46.6,29.96,North,-999,0.0,-999.0,99,-99.99,,,-99.99,Acu-Link.com,2013-05-07 07:02:00,
2013-05-07 02:18:00,45.8,45.5,29.96,North,-999,0.0,-999.0,99,-99.99,,,-99.99,Acu-Link.com,2013-05-07 07:18:00,
2013-05-07 02:33:00,45.1,44.8,29.95,North,-999,0.0,-999.0,99,-99.99,,,-99.99,Acu-Link.com,2013-05-07 07:33:00,
2013-05-07 02:48:00,44.3,44.0,29.95,North,-999,0.0,-999.0,99,-99.99,,,-99.99,Acu-Link.com,2013-05-07 07:48:00,
2013-05-07 03:04:00,43.3,43.0,29.96,North,-999,0.0,-999.0,99,-99.99,,,-99.99,Acu-Link.com,2013-05-07 08:04:00,
2013-05-07 03:19:00,43.7,43.4,29.95,North,-999,0.0,-999.0,99,-99.99,,,-99.99,Acu-Link.com,2013-05-07 08:19:00,
2013-05-07 03:34:00,44.0,43.7,29.96,North,-999,0.0,-999.0,99,-99.99,,,-99.99,Acu-Link.com,2013-05-07 08:34:00,
2013-05-07 03:49:00,42.9,42.6,29.95,North,-999,0.0,-999.0,99,-99.99,,,-99.99,Acu-Link.com,2013-05-07 08:49:00,
2013-05-07 04:04:00,43.1,42.8,29.95,North,-999,0.0,-999.0,99,-99.99,,,-99.99,Acu-Link.com,2013-05-07 09:04:00,
2013-05-07 04:19:00,42.4,42.1,29.95,North,-999,0.0,-999.0,99,-99.99,,,-99.99,Acu-Link.com,2013-05-07 09:19:00,
2013-05-07 04:35:00,41.7,41.4,29.96,North,-999,0.0,-999.0,99,-99.99,,,-99.99,Acu-Link.com,2013-05-07 09:35:00,
2013-05-07 04:50:00,41.8,41.5,29.96,North,-999,0.0,-999.0,99,-99.99,,,-99.99,Acu-Link.com,2013-05-07 09:50:00,
2013-05-07 05:06:00,41.3,41.0,29.95,North,-999,0.0,-999.0,99,-99.99,,,-99.99,Acu-Link.com,2013-05-07 10:06:00,
2013-05-07 05:21:00,41.9,41.6,29.96,North,-999,0.0,-999.0,99,-99.99,,,-99.99,Acu-Link.com,2013-05-07 10:21:00,
2013-05-07 05:36:00,43.3,43.0,29.96,North,-999,0.0,-999.0,99,-99.99,,,-99.99,Acu-Link.com,2013-05-07 10:36:00,
2013-05-07 05:52:00,44.6,44.3,29.96,North,-999,0.0,-999.0,99,-99.99,,,-99.99,Acu-Link.com,2013-05-07 10:52:00,
2013-05-07 06:07:00,44.6,44.3,29.96,North,-999,0.0,-999.0,99,-99.99,,,-99.99,Acu-Link.com,2013-05-07 11:07:00,
2013-05-07 06:23:00,42.5,42.2,29.96,North,-999,0.0,-999.0,99,-99.99,,,-99.99,Acu-Link.com,2013-05-07 11:23:00,
2013-05-07 06:38:00,42.3,42.0,29.96,North,-999,0.0,-999.0,99,-99.99,,,-99.99,Acu-Link.com,2013-05-07 11:38:00,
2013-05-07 06:54:00,46.3,46.0,29.96,North,-999,0.0,-999.0,99,-99.99,,,-99.99,Acu-Link.com,2013-05-07 11:54:00,
2013-05-07 07:09:00,48.7,48.4,29.97,North,-999,0.0,-999.0,99,-99.99,,,-99.99,Acu-Link.com,2013-05-07 12:09:00,
2013-05-07 07:24:00,54.3,54.0,29.97,North,-999,0.0,-999.0,99,-99.99,,,-99.99,Acu-Link.com,2013-05-07 12:24:00,
2013-05-07 07:40:00,57.4,54.8,29.98,North,-999,0.0,-999.0,91,-99.99,,,-99.99,Acu-Link.com,2013-05-07 12:40:00,
2013-05-07 07:55:00,56.8,53.6,29.97,North,-999,0.0,-999.0,89,-99.99,,,-99.99,Acu-Link.com,2013-05-07 12:55:00,
2013-05-07 08:11:00,58.7,54.5,29.97,North,-999,1.6,-999.0,86,-99.99,,,-99.99,Acu-Link.com,2013-05-07 13:11:00,
2013-05-07 08:26:00,60.8,55.6,29.98,North,-999,4.8,-999.0,83,-99.99,,,-99.99,Acu-Link.com,2013-05-07 13:26:00,
2013-05-07 08:42:00,61.2,56.7,29.97,North,-999,1.6,-999.0,85,-99.99,,,-99.99,Acu-Link.com,2013-05-07 13:42:00,
2013-05-07 08:57:00,63.8,58.2,29.98,North,-999,0.0,-999.0,82,-99.99,,,-99.99,Acu-Link.com,2013-05-07 13:57:00,
2013-05-07 09:12:00,62.9,57.0,29.97,North,-999,1.6,-999.0,81,-99.99,,,-99.99,Acu-Link.com,2013-05-07 14:12:00,
2013-05-07 09:27:00,64.0,58.0,29.97,North,-999,0.0,-999.0,81,-99.99,,,-99.99,Acu-Link.com,2013-05-07 14:27:00,
2013-05-07 09:43:00,66.2,58.8,29.97,North,-999,0.0,-999.0,77,-99.99,,,-99.99,Acu-Link.com,2013-05-07 14:43:00,
2013-05-07 09:58:00,68.3,58.1,29.97,North,-999,1.6,-999.0,70,-99.99,,,-99.99,Acu-Link.com,2013-05-07 14:58:00,
2013-05-07 10:13:00,66.7,57.0,29.97,North,-999,4.8,-999.0,71,-99.99,,,-99.99,Acu-Link.com,2013-05-07 15:13:00,
2013-05-07 10:29:00,67.0,56.1,29.96,North,-999,3.2,-999.0,68,-99.99,,,-99.99,Acu-Link.com,2013-05-07 15:29:00,
2013-05-07 10:44:00,68.4,56.6,29.96,North,-999,6.4,-999.0,66,-99.99,,,-99.99,Acu-Link.com,2013-05-07 15:44:00,
2013-05-07 10:59:00,67.8,56.0,29.96,North,-999,6.4,-999.0,66,-99.99,,,-99.99,Acu-Link.com,2013-05-07 15:59:00,
2013-05-07 11:15:00,68.9,58.3,29.96,North,-999,1.6,-999.0,69,-99.99,,,-99.99,Acu-Link.com,2013-05-07 16:15:00,
2013-05-07 11:30:00,68.1,57.1,29.95,North,-999,1.6,-999.0,68,-99.99,,,-99.99,Acu-Link.com,2013-05-07 16:30:00,
2013-05-07 11:45:00,71.2,57.5,29.95,North,-999,4.8,-999.0,62,-99.99,,,-99.99,Acu-Link.com,2013-05-07 16:45:00,
2013-05-07 12:00:00,69.4,55.8,29.95,North,-999,6.4,-999.0,62,-99.99,,,-99.99,Acu-Link.com,2013-05-07 17:00:00,
2013-05-07 12:16:00,69.0,55.4,29.94,North,-999,6.4,-999.0,62,-99.99,,,-99.99,Acu-Link.com,2013-05-07 17:16:00,
2013-05-07 12:31:00,71.4,55.4,29.94,North,-999,6.4,-999.0,57,-99.99,,,-99.99,Acu-Link.com,2013-05-07 17:31:00,
2013-05-07 12:46:00,71.0,55.9,29.94,North,-999,1.6,-999.0,59,-99.99,,,-99.99,Acu-Link.com,2013-05-07 17:46:00,
2013-05-07 13:01:00,71.1,54.6,29.93,North,-999,4.8,-999.0,56,-99.99,,,-99.99,Acu-Link.com,2013-05-07 18:01:00,
2013-05-07 13:17:00,70.9,54.9,29.93,North,-999,3.2,-999.0,57,-99.99,,,-99.99,Acu-Link.com,2013-05-07 18:17:00,
2013-05-07 13:32:00,72.4,54.3,29.92,North,-999,1.6,-999.0,53,-99.99,,,-99.99,Acu-Link.com,2013-05-07 18:32:00,
2013-05-07 13:47:00,72.7,55.6,29.91,North,-999,1.6,-999.0,55,-99.99,,,-99.99,Acu-Link.com,2013-05-07 18:47:00,
2013-05-07 14:02:00,70.7,53.2,29.91,North,-999,1.6,-999.0,54,-99.99,,,-99.99,Acu-Link.com,2013-05-07 19:02:00,
2013-05-07 14:18:00,70.3,54.8,29.91,North,-999,3.2,-999.0,58,-99.99,,,-99.99,Acu-Link.com,2013-05-07 19:18:00,
2013-05-07 14:34:00,69.8,54.3,29.90,North,-999,0.0,-999.0,58,-99.99,,,-99.99,Acu-Link.com,2013-05-07 19:34:00,
2013-05-07 14:49:00,71.0,55.0,29.90,North,-999,1.6,-999.0,57,-99.99,,,-99.99,Acu-Link.com,2013-05-07 19:49:00,
2013-05-07 15:04:00,73.0,56.4,29.90,North,-999,0.0,-999.0,56,-99.99,,,-99.99,Acu-Link.com,2013-05-07 20:04:00,
2013-05-07 15:19:00,75.4,53.8,29.89,North,-999,1.6,-999.0,47,-99.99,,,-99.99,Acu-Link.com,2013-05-07 20:19:00,
2013-05-07 15:34:00,74.3,55.5,29.88,North,-999,3.2,-999.0,52,-99.99,,,-99.99,Acu-Link.com,2013-05-07 20:34:00,
2013-05-07 15:50:00,71.5,54.5,29.88,North,-999,1.6,-999.0,55,-99.99,,,-99.99,Acu-Link.com,2013-05-07 20:50:00,
2013-05-07 16:05:00,71.0,54.0,29.87,North,-999,3.2,-999.0,55,-99.99,,,-99.99,Acu-Link.com,2013-05-07 21:05:00,
2013-05-07 16:20:00,70.5,54.0,29.87,North,-999,0.0,-999.0,56,-99.99,,,-99.99,Acu-Link.com,2013-05-07 21:20:00,
2013-05-07 16:35:00,65.7,58.3,29.87,North,-999,8.0,-999.0,77,-99.99,,,-99.99,Acu-Link.com,2013-05-07 21:35:00,
2013-05-07 16:51:00,64.1,61.1,29.87,North,-999,0.0,-999.0,90,-99.99,,,-99.99,Acu-Link.com,2013-05-07 21:51:00,
2013-05-07 17:06:00,64.4,60.1,29.87,North,-999,1.6,-999.0,86,-99.99,,,-99.99,Acu-Link.com,2013-05-07 22:06:00,
2013-05-07 17:22:00,63.8,61.1,29.87,North,-999,0.0,-999.0,91,-99.99,,,-99.99,Acu-Link.com,2013-05-07 22:22:00,
2013-05-07 17:37:00,64.8,62.1,29.86,North,-999,0.0,-999.0,91,-99.99,,,-99.99,Acu-Link.com,2013-05-07 22:37:00,
2013-05-07 17:52:00,66.0,61.7,29.86,North,-999,0.0,-999.0,86,-99.99,,,-99.99,Acu-Link.com,2013-05-07 22:52:00,
2013-05-07 18:08:00,65.2,61.2,29.86,North,-999,3.2,-999.0,87,-99.99,,,-99.99,Acu-Link.com,2013-05-07 23:08:00,
2013-05-07 18:23:00,64.9,60.9,29.86,North,-999,0.0,-999.0,87,-99.99,,,-99.99,Acu-Link.com,2013-05-07 23:23:00,
2013-05-07 18:38:00,64.3,61.0,29.85,North,-999,0.0,-999.0,89,-99.99,,,-99.99,Acu-Link.com,2013-05-07 23:38:00,
2013-05-07 18:53:00,63.7,61.6,29.85,North,-999,0.0,-999.0,93,-99.99,,,-99.99,Acu-Link.com,2013-05-07 23:53:00,
2013-05-07 19:08:00,62.2,61.3,29.84,North,-999,0.0,-999.0,97,-99.99,,,-99.99,Acu-Link.com,2013-05-08 00:08:00,
2013-05-07 19:24:00,61.1,60.2,29.86,North,-999,1.6,-999.0,97,-99.99,,,-99.99,Acu-Link.com,2013-05-08 00:24:00,
2013-05-07 19:39:00,60.4,60.1,29.87,North,-999,0.0,-999.0,99,-99.99,,,-99.99,Acu-Link.com,2013-05-08 00:39:00,
2013-05-07 19:54:00,59.7,59.4,29.86,North,-999,0.0,-999.0,99,-99.99,,,-99.99,Acu-Link.com,2013-05-08 00:54:00,
2013-05-07 20:09:00,59.3,59.0,29.85,North,-999,0.0,-999.0,99,-99.99,,,-99.99,Acu-Link.com,2013-05-08 01:09:00,
2013-05-07 20:25:00,58.9,58.6,29.86,North,-999,0.0,-999.0,99,-99.99,,,-99.99,Acu-Link.com,2013-05-08 01:25:00,
2013-05-07 20:40:00,58.7,58.4,29.86,North,-999,0.0,-999.0,99,-99.99,,,-99.99,Acu-Link.com,2013-05-08 01:40:00,
2013-05-07 20:55:00,58.6,58.3,29.86,North,-999,3.2,-999.0,99,-99.99,,,-99.99,Acu-Link.com,2013-05-08 01:55:00,
2013-05-07 21:10:00,58.3,58.0,29.86,North,-999,0.0,-999.0,99,-99.99,,,-99.99,Acu-Link.com,2013-05-08 02:10:00,
2013-05-07 21:25:00,57.9,57.6,29.85,North,-999,3.2,-999.0,99,-99.99,,,-99.99,Acu-Link.com,2013-05-08 02:25:00,
2013-05-07 21:40:00,57.2,56.9,29.85,North,-999,3.2,-999.0,99,-99.99,,,-99.99,Acu-Link.com,2013-05-08 02:40:00,
2013-05-07 21:56:00,56.6,56.3,29.85,North,-999,3.2,-999.0,99,-99.99,,,-99.99,Acu-Link.com,2013-05-08 02:56:00,
2013-05-07 22:11:00,56.5,56.2,29.86,North,-999,3.2,-999.0,99,-99.99,,,-99.99,Acu-Link.com,2013-05-08 03:11:00,
2013-05-07 22:26:00,56.8,56.5,29.86,North,-999,1.6,-999.0,99,-99.99,,,-99.99,Acu-Link.com,2013-05-08 03:26:00,
2013-05-07 22:41:00,56.8,56.5,29.85,North,-999,1.6,-999.0,99,-99.99,,,-99.99,Acu-Link.com,2013-05-08 03:41:00,
2013-05-07 22:57:00,56.8,56.5,29.85,North,-999,6.4,-999.0,99,-99.99,,,-99.99,Acu-Link.com,2013-05-08 03:57:00,
2013-05-07 23:12:00,56.9,56.6,29.86,North,-999,3.2,-999.0,99,-99.99,,,-99.99,Acu-Link.com,2013-05-08 04:12:00,
2013-05-07 23:27:00,57.0,56.7,29.85,North,-999,0.0,-999.0,99,-99.99,,,-99.99,Acu-Link.com,2013-05-08 04:27:00,
2013-05-07 23:42:00,57.1,56.8,29.85,North,-999,0.0,-999.0,99,-99.99,,,-99.99,Acu-Link.com,2013-05-08 04:42:00,
2013-05-07 23:57:00,56.5,56.2,29.85,North,-999,0.0,-999.0,99,-99.99,,,-99.99,Acu-Link.com,2013-05-08 04:57:00,